Main page
METAR-TAF:

METAR-TAF

Airports :

Bermuda, Bermuda

L.F. Wade International Airport

latitude: 32-22N, longitude: 064-41W, elevation: 6 m

Current weather observation

The report was made 18 minutes ago, at 18:55 UTC
Wind 16 kt from the West/Northwest
Temperature 18°C
Humidity 59%
Pressure 1019 hPa
Visibility 10 km or more
Scattered clouds at a height of 3800 ft
Broken clouds at a height of 4600 ft
showers in vicinity

METAR: TXKF 191855Z 30016KT 9999 VCSH SCT038 BKN046 18/10 Q1019

Time: 15:13 (19:13 UTC)

Forecast

The report was made 1 hour and 41 minutes ago, at 17:32 UTC
Forecast valid from 19 at 18 UTC to 20 at 18 UTC
Wind 15 kt from the West/Northwest
Visibility 10 km or more
Scattered clouds at a height of 4500 ft
Broken clouds at a height of 5500 ft
showers in vicinity

TAF: TXKF 191732Z 1918/2018 29015KT 9999 VCSH SCT045 BKN055

Weather observations and forecasts of more than 4000 airports (METAR and TAF reports).

The available stations are represented by yellow and red dots on the map.

Hover mouse over dot to see the name of the station.

Then click to see weather observations and forecasts.

To change the map : click on the green buttons with a black cross to zoom in, on the green button with a dash to zoom out, or on the green arrows for adjacent maps.


METAR-TAF: